sensor_id;sensor_type;location;lat;lon;timestamp;temperature;humidity
26037;DHT22;13810;48.376;10.944;2023-09-19T00:00:31;15.90;99.90
26037;DHT22;13810;48.376;10.944;2023-09-19T00:01:06;16.00;99.90
26037;DHT22;13810;48.376;10.944;2023-09-19T00:01:43;16.00;99.90
26037;DHT22;13810;48.376;10.944;2023-09-19T00:02:16;15.90;99.90
26037;DHT22;13810;48.376;10.944;2023-09-19T00:02:52;16.00;99.90
26037;DHT22;13810;48.376;10.944;2023-09-19T00:03:24;16.00;99.90
26037;DHT22;13810;48.376;10.944;2023-09-19T00:03:56;16.00;99.90
26037;DHT22;13810;48.376;10.944;2023-09-19T00:04:31;16.00;99.90
26037;DHT22;13810;48.376;10.944;2023-09-19T00:05:03;15.90;99.90
26037;DHT22;13810;48.376;10.944;2023-09-19T00:05:36;15.90;99.90
26037;DHT22;13810;48.376;10.944;2023-09-19T00:06:14;16.00;99.90
26037;DHT22;13810;48.376;10.944;2023-09-19T00:06:46;16.00;99.90
26037;DHT22;13810;48.376;10.944;2023-09-19T00:07:17;16.00;99.90
26037;DHT22;13810;48.376;10.944;2023-09-19T00:07:48;16.00;99.90
26037;DHT22;13810;48.376;10.944;2023-09-19T00:08:21;16.00;99.90
26037;DHT22;13810;48.376;10.944;2023-09-19T00:08:55;16.00;99.90
26037;DHT22;13810;48.376;10.944;2023-09-19T00:09:25;16.00;99.90
26037;DHT22;13810;48.376;10.944;2023-09-19T00:09:58;16.00;99.90
26037;DHT22;13810;48.376;10.944;2023-09-19T00:10:28;16.00;99.90
26037;DHT22;13810;48.376;10.944;2023-09-19T00:11:01;16.10;99.90
26037;DHT22;13810;48.376;10.944;2023-09-19T00:11:34;16.00;99.90
26037;DHT22;13810;48.376;10.944;2023-09-19T00:12:06;16.10;99.90
26037;DHT22;13810;48.376;10.944;2023-09-19T00:12:37;16.00;99.90
26037;DHT22;13810;48.376;10.944;2023-09-19T00:13:08;16.10;99.90
26037;DHT22;13810;48.376;10.944;2023-09-19T00:13:43;16.10;99.90
26037;DHT22;13810;48.376;10.944;2023-09-19T00:14:14;16.10;99.90
26037;DHT22;13810;48.376;10.944;2023-09-19T00:14:45;16.10;99.90
26037;DHT22;13810;48.376;10.944;2023-09-19T00:15:15;16.10;99.90
26037;DHT22;13810;48.376;10.944;2023-09-19T00:15:48;16.10;99.90
26037;DHT22;13810;48.376;10.944;2023-09-19T00:16:19;16.10;99.90
26037;DHT22;13810;48.376;10.944;2023-09-19T00:16:49;16.10;99.90
26037;DHT22;13810;48.376;10.944;2023-09-19T00:17:20;16.10;99.90
26037;DHT22;13810;48.376;10.944;2023-09-19T00:17:51;16.10;99.90
26037;DHT22;13810;48.376;10.944;2023-09-19T00:18:22;16.20;99.90
26037;DHT22;13810;48.376;10.944;2023-09-19T00:18:54;16.20;99.90
26037;DHT22;13810;48.376;10.944;2023-09-19T00:19:25;16.10;99.90
26037;DHT22;13810;48.376;10.944;2023-09-19T00:19:56;16.20;99.90
26037;DHT22;13810;48.376;10.944;2023-09-19T00:20:26;16.10;99.90
26037;DHT22;13810;48.376;10.944;2023-09-19T00:21:00;16.20;99.90
26037;DHT22;13810;48.376;10.944;2023-09-19T00:21:31;16.10;99.90
26037;DHT22;13810;48.376;10.944;2023-09-19T00:22:02;16.10;99.90
26037;DHT22;13810;48.376;10.944;2023-09-19T00:22:33;16.20;99.90
26037;DHT22;13810;48.376;10.944;2023-09-19T00:23:05;16.20;99.90
26037;DHT22;13810;48.376;10.944;2023-09-19T00:23:39;16.20;99.90
26037;DHT22;13810;48.376;10.944;2023-09-19T00:24:12;16.20;99.90
26037;DHT22;13810;48.376;10.944;2023-09-19T00:24:44;16.20;99.90
26037;DHT22;13810;48.376;10.944;2023-09-19T00:25:15;16.20;99.90
26037;DHT22;13810;48.376;10.944;2023-09-19T00:25:46;16.20;99.90
26037;DHT22;13810;48.376;10.944;2023-09-19T00:26:16;16.20;99.90
26037;DHT22;13810;48.376;10.944;2023-09-19T00:26:49;16.20;99.90
26037;DHT22;13810;48.376;10.944;2023-09-19T00:27:19;16.20;99.90
26037;DHT22;13810;48.376;10.944;2023-09-19T00:27:50;16.20;99.90
26037;DHT22;13810;48.376;10.944;2023-09-19T00:28:22;16.20;99.90
26037;DHT22;13810;48.376;10.944;2023-09-19T00:28:52;16.20;99.90
26037;DHT22;13810;48.376;10.944;2023-09-19T00:29:23;16.20;99.90
26037;DHT22;13810;48.376;10.944;2023-09-19T00:29:54;16.20;99.90
26037;DHT22;13810;48.376;10.944;2023-09-19T00:30:24;16.10;99.90
26037;DHT22;13810;48.376;10.944;2023-09-19T00:30:55;16.20;99.90
26037;DHT22;13810;48.376;10.944;2023-09-19T00:31:26;16.10;99.90
26037;DHT22;13810;48.376;10.944;2023-09-19T00:31:56;16.10;99.90
26037;DHT22;13810;48.376;10.944;2023-09-19T00:32:27;16.20;99.90
26037;DHT22;13810;48.376;10.944;2023-09-19T00:33:01;16.20;99.90
26037;DHT22;13810;48.376;10.944;2023-09-19T00:33:36;16.20;99.90
26037;DHT22;13810;48.376;10.944;2023-09-19T00:34:07;16.20;99.90
26037;DHT22;13810;48.376;10.944;2023-09-19T00:34:40;16.20;99.90
26037;DHT22;13810;48.376;10.944;2023-09-19T00:35:15;16.20;99.90
26037;DHT22;13810;48.376;10.944;2023-09-19T00:35:53;16.20;99.90
26037;DHT22;13810;48.376;10.944;2023-09-19T00:36:24;16.20;99.90
26037;DHT22;13810;48.376;10.944;2023-09-19T00:36:55;16.20;99.90
26037;DHT22;13810;48.376;10.944;2023-09-19T00:37:25;16.20;99.90
26037;DHT22;13810;48.376;10.944;2023-09-19T00:37:56;16.20;99.90
26037;DHT22;13810;48.376;10.944;2023-09-19T00:38:26;16.20;99.90
26037;DHT22;13810;48.376;10.944;2023-09-19T00:38:57;16.20;99.90
26037;DHT22;13810;48.376;10.944;2023-09-19T00:39:28;16.20;99.90
26037;DHT22;13810;48.376;10.944;2023-09-19T00:40:05;16.20;99.90
26037;DHT22;13810;48.376;10.944;2023-09-19T00:40:36;16.20;99.90
26037;DHT22;13810;48.376;10.944;2023-09-19T00:41:07;16.20;99.90
26037;DHT22;13810;48.376;10.944;2023-09-19T00:41:38;16.20;99.90
26037;DHT22;13810;48.376;10.944;2023-09-19T00:42:08;16.20;99.90
26037;DHT22;13810;48.376;10.944;2023-09-19T00:42:39;16.30;99.90
26037;DHT22;13810;48.376;10.944;2023-09-19T00:43:11;16.30;99.90
26037;DHT22;13810;48.376;10.944;2023-09-19T00:43:41;16.30;99.90
26037;DHT22;13810;48.376;10.944;2023-09-19T00:44:12;16.30;99.90
26037;DHT22;13810;48.376;10.944;2023-09-19T00:44:43;16.30;99.90
26037;DHT22;13810;48.376;10.944;2023-09-19T00:45:15;16.30;99.90
26037;DHT22;13810;48.376;10.944;2023-09-19T00:45:48;16.30;99.90
26037;DHT22;13810;48.376;10.944;2023-09-19T00:46:19;16.30;99.90
26037;DHT22;13810;48.376;10.944;2023-09-19T00:46:50;16.30;99.90
26037;DHT22;13810;48.376;10.944;2023-09-19T00:47:21;16.30;99.90
26037;DHT22;13810;48.376;10.944;2023-09-19T00:47:52;16.30;99.90
26037;DHT22;13810;48.376;10.944;2023-09-19T00:48:24;16.30;99.90
26037;DHT22;13810;48.376;10.944;2023-09-19T00:48:57;16.30;99.90
26037;DHT22;13810;48.376;10.944;2023-09-19T00:49:29;16.30;99.90
26037;DHT22;13810;48.376;10.944;2023-09-19T00:50:03;16.30;99.90
26037;DHT22;13810;48.376;10.944;2023-09-19T00:50:35;16.30;99.90
26037;DHT22;13810;48.376;10.944;2023-09-19T00:51:06;16.30;99.90
26037;DHT22;13810;48.376;10.944;2023-09-19T00:51:37;16.40;99.90
26037;DHT22;13810;48.376;10.944;2023-09-19T00:52:07;16.40;99.90
26037;DHT22;13810;48.376;10.944;2023-09-19T00:52:42;16.40;99.90
26037;DHT22;13810;48.376;10.944;2023-09-19T00:53:14;16.40;99.90
26037;DHT22;13810;48.376;10.944;2023-09-19T00:53:46;16.40;99.90
26037;DHT22;13810;48.376;10.944;2023-09-19T00:54:18;16.40;99.90
26037;DHT22;13810;48.376;10.944;2023-09-19T00:54:49;16.40;99.90
26037;DHT22;13810;48.376;10.944;2023-09-19T00:55:20;16.40;99.90
26037;DHT22;13810;48.376;10.944;2023-09-19T00:55:51;16.40;99.90
26037;DHT22;13810;48.376;10.944;2023-09-19T00:56:22;16.50;99.90
26037;DHT22;13810;48.376;10.944;2023-09-19T00:56:53;16.50;99.90
26037;DHT22;13810;48.376;10.944;2023-09-19T00:57:25;16.50;99.90
26037;DHT22;13810;48.376;10.944;2023-09-19T00:57:56;16.50;99.90
26037;DHT22;13810;48.376;10.944;2023-09-19T00:58:27;16.50;99.90
26037;DHT22;13810;48.376;10.944;2023-09-19T00:59:02;16.50;99.90
26037;DHT22;13810;48.376;10.944;2023-09-19T00:59:34;16.50;99.90
26037;DHT22;13810;48.376;10.944;2023-09-19T01:00:07;16.50;99.90
26037;DHT22;13810;48.376;10.944;2023-09-19T01:00:40;16.50;99.90
26037;DHT22;13810;48.376;10.944;2023-09-19T01:01:11;16.50;99.90
26037;DHT22;13810;48.376;10.944;2023-09-19T01:01:42;16.50;99.90
26037;DHT22;13810;48.376;10.944;2023-09-19T01:02:16;16.50;99.90
26037;DHT22;13810;48.376;10.944;2023-09-19T01:02:47;16.50;99.90
26037;DHT22;13810;48.376;10.944;2023-09-19T01:03:18;16.50;99.90
26037;DHT22;13810;48.376;10.944;2023-09-19T01:03:49;16.50;99.90
26037;DHT22;13810;48.376;10.944;2023-09-19T01:04:20;16.50;99.90
26037;DHT22;13810;48.376;10.944;2023-09-19T01:04:51;16.50;99.90
26037;DHT22;13810;48.376;10.944;2023-09-19T01:05:22;16.50;99.90
26037;DHT22;13810;48.376;10.944;2023-09-19T01:05:54;16.60;99.90
26037;DHT22;13810;48.376;10.944;2023-09-19T01:06:25;16.50;99.90
26037;DHT22;13810;48.376;10.944;2023-09-19T01:06:56;16.50;99.90
26037;DHT22;13810;48.376;10.944;2023-09-19T01:07:30;16.60;99.90
26037;DHT22;13810;48.376;10.944;2023-09-19T01:08:01;16.60;99.90
26037;DHT22;13810;48.376;10.944;2023-09-19T01:08:33;16.60;99.90
26037;DHT22;13810;48.376;10.944;2023-09-19T01:09:05;16.60;99.90
26037;DHT22;13810;48.376;10.944;2023-09-19T01:09:36;16.60;99.90
26037;DHT22;13810;48.376;10.944;2023-09-19T01:10:12;16.60;99.90
26037;DHT22;13810;48.376;10.944;2023-09-19T01:11:14;16.60;99.90
26037;DHT22;13810;48.376;10.944;2023-09-19T01:11:50;16.60;99.90
26037;DHT22;13810;48.376;10.944;2023-09-19T01:12:30;16.60;99.90
26037;DHT22;13810;48.376;10.944;2023-09-19T01:13:43;16.60;99.90
26037;DHT22;13810;48.376;10.944;2023-09-19T01:15:04;16.60;99.90
26037;DHT22;13810;48.376;10.944;2023-09-19T01:17:14;16.60;99.90
26037;DHT22;13810;48.376;10.944;2023-09-19T01:19:02;16.50;99.90
26037;DHT22;13810;48.376;10.944;2023-09-19T01:20:39;16.60;99.90
26037;DHT22;13810;48.376;10.944;2023-09-19T01:21:57;16.60;99.90
26037;DHT22;13810;48.376;10.944;2023-09-19T01:23:00;16.50;99.90
26037;DHT22;13810;48.376;10.944;2023-09-19T01:24:17;16.50;99.90
26037;DHT22;13810;48.376;10.944;2023-09-19T01:26:17;16.50;99.90
26037;DHT22;13810;48.376;10.944;2023-09-19T01:29:39;16.40;99.90
26037;DHT22;13810;48.376;10.944;2023-09-19T01:29:46;16.40;99.90
26037;DHT22;13810;48.376;10.944;2023-09-19T01:30:24;16.40;99.90
26037;DHT22;13810;48.376;10.944;2023-09-19T01:30:58;16.40;99.90
26037;DHT22;13810;48.376;10.944;2023-09-19T01:31:33;16.40;99.90
26037;DHT22;13810;48.376;10.944;2023-09-19T01:32:08;16.30;99.90
26037;DHT22;13810;48.376;10.944;2023-09-19T01:32:40;16.30;99.90
26037;DHT22;13810;48.376;10.944;2023-09-19T01:33:11;16.30;99.90
26037;DHT22;13810;48.376;10.944;2023-09-19T01:33:54;16.30;99.90
26037;DHT22;13810;48.376;10.944;2023-09-19T01:34:49;16.30;99.90
26037;DHT22;13810;48.376;10.944;2023-09-19T01:35:20;16.40;99.90
26037;DHT22;13810;48.376;10.944;2023-09-19T01:35:51;16.30;99.90
26037;DHT22;13810;48.376;10.944;2023-09-19T01:36:23;16.30;99.90
26037;DHT22;13810;48.376;10.944;2023-09-19T01:36:54;16.30;99.90
26037;DHT22;13810;48.376;10.944;2023-09-19T01:37:25;16.40;99.90
26037;DHT22;13810;48.376;10.944;2023-09-19T01:37:56;16.30;99.90
26037;DHT22;13810;48.376;10.944;2023-09-19T01:38:27;16.30;99.90
26037;DHT22;13810;48.376;10.944;2023-09-19T01:38:58;16.30;99.90
26037;DHT22;13810;48.376;10.944;2023-09-19T01:39:36;16.30;99.90
26037;DHT22;13810;48.376;10.944;2023-09-19T01:40:11;16.40;99.90
26037;DHT22;13810;48.376;10.944;2023-09-19T01:40:56;16.40;99.90
26037;DHT22;13810;48.376;10.944;2023-09-19T01:43:25;16.40;99.90
26037;DHT22;13810;48.376;10.944;2023-09-19T01:43:58;16.40;99.90
26037;DHT22;13810;48.376;10.944;2023-09-19T01:44:49;16.40;99.90
26037;DHT22;13810;48.376;10.944;2023-09-19T01:46:12;16.40;99.90
26037;DHT22;13810;48.376;10.944;2023-09-19T01:46:45;16.40;99.90
26037;DHT22;13810;48.376;10.944;2023-09-19T01:47:33;16.40;99.90
26037;DHT22;13810;48.376;10.944;2023-09-19T01:48:20;16.40;99.90
26037;DHT22;13810;48.376;10.944;2023-09-19T01:50:07;16.40;99.90
26037;DHT22;13810;48.376;10.944;2023-09-19T01:50:59;16.40;99.90
26037;DHT22;13810;48.376;10.944;2023-09-19T01:51:41;16.40;99.90
26037;DHT22;13810;48.376;10.944;2023-09-19T01:52:15;16.40;99.90
26037;DHT22;13810;48.376;10.944;2023-09-19T01:52:57;16.40;99.90
26037;DHT22;13810;48.376;10.944;2023-09-19T01:53:51;16.40;99.90
26037;DHT22;13810;48.376;10.944;2023-09-19T01:54:35;16.30;99.90
26037;DHT22;13810;48.376;10.944;2023-09-19T01:55:09;16.30;99.90
26037;DHT22;13810;48.376;10.944;2023-09-19T01:55:46;16.40;99.90
26037;DHT22;13810;48.376;10.944;2023-09-19T01:56:31;16.30;99.90
26037;DHT22;13810;48.376;10.944;2023-09-19T01:57:07;16.30;99.90
26037;DHT22;13810;48.376;10.944;2023-09-19T01:57:54;16.30;99.90
26037;DHT22;13810;48.376;10.944;2023-09-19T01:58:47;16.30;99.90
26037;DHT22;13810;48.376;10.944;2023-09-19T01:59:24;16.30;99.90
26037;DHT22;13810;48.376;10.944;2023-09-19T02:00:05;16.30;99.90
26037;DHT22;13810;48.376;10.944;2023-09-19T02:00:37;16.30;99.90
26037;DHT22;13810;48.376;10.944;2023-09-19T02:01:12;16.30;99.90
26037;DHT22;13810;48.376;10.944;2023-09-19T02:01:45;16.30;99.90
26037;DHT22;13810;48.376;10.944;2023-09-19T02:02:17;16.30;99.90
26037;DHT22;13810;48.376;10.944;2023-09-19T02:02:49;16.40;99.90
26037;DHT22;13810;48.376;10.944;2023-09-19T02:03:21;16.30;99.90
26037;DHT22;13810;48.376;10.944;2023-09-19T02:03:55;16.30;99.90
26037;DHT22;13810;48.376;10.944;2023-09-19T02:04:27;16.30;99.90
26037;DHT22;13810;48.376;10.944;2023-09-19T02:04:57;16.30;99.90
26037;DHT22;13810;48.376;10.944;2023-09-19T02:05:28;16.30;99.90
26037;DHT22;13810;48.376;10.944;2023-09-19T02:05:59;16.30;99.90
26037;DHT22;13810;48.376;10.944;2023-09-19T02:06:30;16.30;99.90
26037;DHT22;13810;48.376;10.944;2023-09-19T02:07:01;16.30;99.90
26037;DHT22;13810;48.376;10.944;2023-09-19T02:07:33;16.30;99.90
26037;DHT22;13810;48.376;10.944;2023-09-19T02:08:04;16.30;99.90
26037;DHT22;13810;48.376;10.944;2023-09-19T02:08:35;16.30;99.90
26037;DHT22;13810;48.376;10.944;2023-09-19T02:09:06;16.30;99.90
26037;DHT22;13810;48.376;10.944;2023-09-19T02:09:36;16.30;99.90
26037;DHT22;13810;48.376;10.944;2023-09-19T02:10:09;16.30;99.90
26037;DHT22;13810;48.376;10.944;2023-09-19T02:10:42;16.30;99.90
26037;DHT22;13810;48.376;10.944;2023-09-19T02:11:13;16.30;99.90
26037;DHT22;13810;48.376;10.944;2023-09-19T02:11:44;16.30;99.90
26037;DHT22;13810;48.376;10.944;2023-09-19T02:12:15;16.30;99.90
26037;DHT22;13810;48.376;10.944;2023-09-19T02:12:46;16.30;99.90
26037;DHT22;13810;48.376;10.944;2023-09-19T02:13:17;16.30;99.90
26037;DHT22;13810;48.376;10.944;2023-09-19T02:13:48;16.30;99.90
26037;DHT22;13810;48.376;10.944;2023-09-19T02:14:24;16.30;99.90
26037;DHT22;13810;48.376;10.944;2023-09-19T02:14:55;16.30;99.90
26037;DHT22;13810;48.376;10.944;2023-09-19T02:15:27;16.30;99.90
26037;DHT22;13810;48.376;10.944;2023-09-19T02:15:59;16.30;99.90
26037;DHT22;13810;48.376;10.944;2023-09-19T02:16:30;16.30;99.90
26037;DHT22;13810;48.376;10.944;2023-09-19T02:17:01;16.30;99.90
26037;DHT22;13810;48.376;10.944;2023-09-19T02:17:33;16.30;99.90
26037;DHT22;13810;48.376;10.944;2023-09-19T02:18:03;16.30;99.90
26037;DHT22;13810;48.376;10.944;2023-09-19T02:18:34;16.30;99.90
26037;DHT22;13810;48.376;10.944;2023-09-19T02:19:08;16.30;99.90
26037;DHT22;13810;48.376;10.944;2023-09-19T02:19:38;16.30;99.90
26037;DHT22;13810;48.376;10.944;2023-09-19T02:20:10;16.30;99.90
26037;DHT22;13810;48.376;10.944;2023-09-19T02:20:45;16.30;99.90
26037;DHT22;13810;48.376;10.944;2023-09-19T02:21:16;16.30;99.90
26037;DHT22;13810;48.376;10.944;2023-09-19T02:21:47;16.30;99.90
26037;DHT22;13810;48.376;10.944;2023-09-19T02:22:19;16.30;99.90
26037;DHT22;13810;48.376;10.944;2023-09-19T02:22:50;16.30;99.90
26037;DHT22;13810;48.376;10.944;2023-09-19T02:23:20;16.30;99.90
26037;DHT22;13810;48.376;10.944;2023-09-19T02:23:51;16.30;99.90
26037;DHT22;13810;48.376;10.944;2023-09-19T02:24:22;16.20;99.90
26037;DHT22;13810;48.376;10.944;2023-09-19T02:24:57;16.20;99.90
26037;DHT22;13810;48.376;10.944;2023-09-19T02:25:31;16.20;99.90
26037;DHT22;13810;48.376;10.944;2023-09-19T02:26:02;16.20;99.90
26037;DHT22;13810;48.376;10.944;2023-09-19T02:26:34;16.20;99.90
26037;DHT22;13810;48.376;10.944;2023-09-19T02:27:07;16.20;99.90
26037;DHT22;13810;48.376;10.944;2023-09-19T02:27:38;16.20;99.90
26037;DHT22;13810;48.376;10.944;2023-09-19T02:28:10;16.20;99.90
26037;DHT22;13810;48.376;10.944;2023-09-19T02:28:40;16.20;99.90
26037;DHT22;13810;48.376;10.944;2023-09-19T02:29:11;16.20;99.90
26037;DHT22;13810;48.376;10.944;2023-09-19T02:29:43;16.20;99.90
26037;DHT22;13810;48.376;10.944;2023-09-19T02:30:14;16.20;99.90
26037;DHT22;13810;48.376;10.944;2023-09-19T02:30:49;16.20;99.90
26037;DHT22;13810;48.376;10.944;2023-09-19T02:31:20;16.20;99.90
26037;DHT22;13810;48.376;10.944;2023-09-19T02:31:51;16.10;99.90
26037;DHT22;13810;48.376;10.944;2023-09-19T02:32:22;16.10;99.90
26037;DHT22;13810;48.376;10.944;2023-09-19T02:32:53;16.10;99.90
26037;DHT22;13810;48.376;10.944;2023-09-19T02:33:24;16.10;99.90
26037;DHT22;13810;48.376;10.944;2023-09-19T02:33:55;16.10;99.90
26037;DHT22;13810;48.376;10.944;2023-09-19T02:34:27;16.10;99.90
26037;DHT22;13810;48.376;10.944;2023-09-19T02:34:57;16.20;99.90
26037;DHT22;13810;48.376;10.944;2023-09-19T02:35:29;16.10;99.90
26037;DHT22;13810;48.376;10.944;2023-09-19T02:36:05;16.10;99.90
26037;DHT22;13810;48.376;10.944;2023-09-19T02:36:36;16.10;99.90
26037;DHT22;13810;48.376;10.944;2023-09-19T02:37:07;16.10;99.90
26037;DHT22;13810;48.376;10.944;2023-09-19T02:37:39;16.10;99.90
26037;DHT22;13810;48.376;10.944;2023-09-19T02:38:09;16.10;99.90
26037;DHT22;13810;48.376;10.944;2023-09-19T02:38:42;16.10;99.90
26037;DHT22;13810;48.376;10.944;2023-09-19T02:39:13;16.10;99.90
26037;DHT22;13810;48.376;10.944;2023-09-19T02:39:44;16.10;99.90
26037;DHT22;13810;48.376;10.944;2023-09-19T02:40:15;16.10;99.90
26037;DHT22;13810;48.376;10.944;2023-09-19T02:40:49;16.00;99.90
26037;DHT22;13810;48.376;10.944;2023-09-19T02:41:19;16.10;99.90
26037;DHT22;13810;48.376;10.944;2023-09-19T02:41:50;16.10;99.90
26037;DHT22;13810;48.376;10.944;2023-09-19T02:42:21;16.00;99.90
26037;DHT22;13810;48.376;10.944;2023-09-19T02:42:55;16.10;99.90
26037;DHT22;13810;48.376;10.944;2023-09-19T02:43:26;16.10;99.90
26037;DHT22;13810;48.376;10.944;2023-09-19T02:43:58;16.10;99.90
26037;DHT22;13810;48.376;10.944;2023-09-19T02:44:29;16.10;99.90
26037;DHT22;13810;48.376;10.944;2023-09-19T02:45:00;16.10;99.90
26037;DHT22;13810;48.376;10.944;2023-09-19T02:45:31;16.10;99.90
26037;DHT22;13810;48.376;10.944;2023-09-19T02:46:02;16.10;99.90
26037;DHT22;13810;48.376;10.944;2023-09-19T02:46:34;16.10;99.90
26037;DHT22;13810;48.376;10.944;2023-09-19T02:47:06;16.10;99.90
26037;DHT22;13810;48.376;10.944;2023-09-19T02:47:37;16.10;99.90
26037;DHT22;13810;48.376;10.944;2023-09-19T02:48:08;16.10;99.90
26037;DHT22;13810;48.376;10.944;2023-09-19T02:48:38;16.10;99.90
26037;DHT22;13810;48.376;10.944;2023-09-19T02:49:09;16.10;99.90
26037;DHT22;13810;48.376;10.944;2023-09-19T02:49:40;16.10;99.90
26037;DHT22;13810;48.376;10.944;2023-09-19T02:50:11;16.20;99.90
26037;DHT22;13810;48.376;10.944;2023-09-19T02:50:43;16.20;99.90
26037;DHT22;13810;48.376;10.944;2023-09-19T02:51:14;16.20;99.90
26037;DHT22;13810;48.376;10.944;2023-09-19T02:51:45;16.20;99.90
26037;DHT22;13810;48.376;10.944;2023-09-19T02:52:18;16.20;99.90
26037;DHT22;13810;48.376;10.944;2023-09-19T02:52:48;16.20;99.90
26037;DHT22;13810;48.376;10.944;2023-09-19T02:53:19;16.20;99.90
26037;DHT22;13810;48.376;10.944;2023-09-19T02:53:50;16.20;99.90
26037;DHT22;13810;48.376;10.944;2023-09-19T02:54:23;16.20;99.90
26037;DHT22;13810;48.376;10.944;2023-09-19T02:54:53;16.20;99.90
26037;DHT22;13810;48.376;10.944;2023-09-19T02:55:25;16.20;99.90
26037;DHT22;13810;48.376;10.944;2023-09-19T02:55:56;16.20;99.90
26037;DHT22;13810;48.376;10.944;2023-09-19T02:56:26;16.30;99.90
26037;DHT22;13810;48.376;10.944;2023-09-19T02:56:57;16.30;99.90
26037;DHT22;13810;48.376;10.944;2023-09-19T02:57:29;16.20;99.90
26037;DHT22;13810;48.376;10.944;2023-09-19T02:58:00;16.30;99.90
26037;DHT22;13810;48.376;10.944;2023-09-19T02:58:32;16.20;99.90
26037;DHT22;13810;48.376;10.944;2023-09-19T02:59:05;16.20;99.90
26037;DHT22;13810;48.376;10.944;2023-09-19T02:59:36;16.30;99.90
26037;DHT22;13810;48.376;10.944;2023-09-19T03:00:08;16.30;99.90
26037;DHT22;13810;48.376;10.944;2023-09-19T03:00:41;16.20;99.90
26037;DHT22;13810;48.376;10.944;2023-09-19T03:01:12;16.20;99.90
26037;DHT22;13810;48.376;10.944;2023-09-19T03:01:43;16.30;99.90
26037;DHT22;13810;48.376;10.944;2023-09-19T03:02:14;16.20;99.90
26037;DHT22;13810;48.376;10.944;2023-09-19T03:02:49;16.30;99.90
26037;DHT22;13810;48.376;10.944;2023-09-19T03:03:20;16.30;99.90
26037;DHT22;13810;48.376;10.944;2023-09-19T03:03:51;16.30;99.90
26037;DHT22;13810;48.376;10.944;2023-09-19T03:04:22;16.30;99.90
26037;DHT22;13810;48.376;10.944;2023-09-19T03:04:53;16.20;99.90
26037;DHT22;13810;48.376;10.944;2023-09-19T03:05:24;16.20;99.90
26037;DHT22;13810;48.376;10.944;2023-09-19T03:05:55;16.20;99.90
26037;DHT22;13810;48.376;10.944;2023-09-19T03:06:25;16.20;99.90
26037;DHT22;13810;48.376;10.944;2023-09-19T03:06:56;16.20;99.90
26037;DHT22;13810;48.376;10.944;2023-09-19T03:07:30;16.20;99.90
26037;DHT22;13810;48.376;10.944;2023-09-19T03:08:01;16.20;99.90
26037;DHT22;13810;48.376;10.944;2023-09-19T03:08:32;16.20;99.90
26037;DHT22;13810;48.376;10.944;2023-09-19T03:09:06;16.30;99.90
26037;DHT22;13810;48.376;10.944;2023-09-19T03:09:44;16.20;99.90
26037;DHT22;13810;48.376;10.944;2023-09-19T03:10:15;16.30;99.90
26037;DHT22;13810;48.376;10.944;2023-09-19T03:10:46;16.20;99.90
26037;DHT22;13810;48.376;10.944;2023-09-19T03:11:18;16.30;99.90
26037;DHT22;13810;48.376;10.944;2023-09-19T03:11:51;16.20;99.90
26037;DHT22;13810;48.376;10.944;2023-09-19T03:12:22;16.30;99.90
26037;DHT22;13810;48.376;10.944;2023-09-19T03:12:53;16.20;99.90
26037;DHT22;13810;48.376;10.944;2023-09-19T03:13:24;16.30;99.90
26037;DHT22;13810;48.376;10.944;2023-09-19T03:13:55;16.30;99.90
26037;DHT22;13810;48.376;10.944;2023-09-19T03:14:26;16.20;99.90
26037;DHT22;13810;48.376;10.944;2023-09-19T03:15:00;16.20;99.90
26037;DHT22;13810;48.376;10.944;2023-09-19T03:15:31;16.20;99.90
26037;DHT22;13810;48.376;10.944;2023-09-19T03:16:02;16.20;99.90
26037;DHT22;13810;48.376;10.944;2023-09-19T03:16:35;16.20;99.90
26037;DHT22;13810;48.376;10.944;2023-09-19T03:17:07;16.20;99.90
26037;DHT22;13810;48.376;10.944;2023-09-19T03:17:43;16.20;99.90
26037;DHT22;13810;48.376;10.944;2023-09-19T03:18:14;16.20;99.90
26037;DHT22;13810;48.376;10.944;2023-09-19T03:18:44;16.20;99.90
26037;DHT22;13810;48.376;10.944;2023-09-19T03:19:15;16.10;99.90
26037;DHT22;13810;48.376;10.944;2023-09-19T03:19:46;16.10;99.90
26037;DHT22;13810;48.376;10.944;2023-09-19T03:20:17;16.10;99.90
26037;DHT22;13810;48.376;10.944;2023-09-19T03:20:55;16.10;99.90
26037;DHT22;13810;48.376;10.944;2023-09-19T03:21:26;16.10;99.90
26037;DHT22;13810;48.376;10.944;2023-09-19T03:21:57;16.10;99.90
26037;DHT22;13810;48.376;10.944;2023-09-19T03:22:28;16.10;99.90
26037;DHT22;13810;48.376;10.944;2023-09-19T03:22:59;16.10;99.90
26037;DHT22;13810;48.376;10.944;2023-09-19T03:23:30;16.10;99.90
26037;DHT22;13810;48.376;10.944;2023-09-19T03:24:01;16.10;99.90
26037;DHT22;13810;48.376;10.944;2023-09-19T03:24:33;16.10;99.90
26037;DHT22;13810;48.376;10.944;2023-09-19T03:25:07;16.10;99.90
26037;DHT22;13810;48.376;10.944;2023-09-19T03:25:38;16.00;99.90
26037;DHT22;13810;48.376;10.944;2023-09-19T03:26:09;16.10;99.90
26037;DHT22;13810;48.376;10.944;2023-09-19T03:26:40;16.10;99.90
26037;DHT22;13810;48.376;10.944;2023-09-19T03:27:11;16.10;99.90
26037;DHT22;13810;48.376;10.944;2023-09-19T03:27:44;16.10;99.90
26037;DHT22;13810;48.376;10.944;2023-09-19T03:28:15;16.10;99.90
26037;DHT22;13810;48.376;10.944;2023-09-19T03:28:46;16.10;99.90
26037;DHT22;13810;48.376;10.944;2023-09-19T03:29:17;16.10;99.90
26037;DHT22;13810;48.376;10.944;2023-09-19T03:29:48;16.10;99.90
26037;DHT22;13810;48.376;10.944;2023-09-19T03:30:19;16.10;99.90
26037;DHT22;13810;48.376;10.944;2023-09-19T03:31:03;16.10;99.90
26037;DHT22;13810;48.376;10.944;2023-09-19T03:31:34;16.10;99.90
26037;DHT22;13810;48.376;10.944;2023-09-19T03:32:07;16.10;99.90
26037;DHT22;13810;48.376;10.944;2023-09-19T03:32:49;16.10;99.90
26037;DHT22;13810;48.376;10.944;2023-09-19T03:33:20;16.10;99.90
26037;DHT22;13810;48.376;10.944;2023-09-19T03:33:51;16.10;99.90
26037;DHT22;13810;48.376;10.944;2023-09-19T03:34:21;16.10;99.90
26037;DHT22;13810;48.376;10.944;2023-09-19T03:34:52;16.20;99.90
26037;DHT22;13810;48.376;10.944;2023-09-19T03:35:23;16.20;99.90
26037;DHT22;13810;48.376;10.944;2023-09-19T03:35:54;16.20;99.90
26037;DHT22;13810;48.376;10.944;2023-09-19T03:36:24;16.20;99.90
26037;DHT22;13810;48.376;10.944;2023-09-19T03:36:55;16.20;99.90
26037;DHT22;13810;48.376;10.944;2023-09-19T03:37:26;16.20;99.90
26037;DHT22;13810;48.376;10.944;2023-09-19T03:37:56;16.10;99.90
26037;DHT22;13810;48.376;10.944;2023-09-19T03:38:27;16.10;99.90